Lincolnville, Maine
Current Conditions -  °F | °C
As of 6:35 PM on Tuesday 25 Nov 2014 (Local Time) from KRKD Reporting Station
Clear Clear  
Wind Chill: 52°   Ceiling: Unl
Heat Index: 52°   Visibility: 10mi
Dew Point: 28°   Wind: 13mph
Humidity: 41%   Direction: 260°W
Pressure: 29.9"   Gusts: NA
Location:  44.28°N, 69.01°W
Report Text: KRKD 252335Z AUTO 26011KT 10SM CLR 11/M02 A2990 RMK AO1
Loading
Personal Weather Stations






























Interactive Weather Map New forecast layout! Learn more

10-Day Weather Forecast

Advertisements
Track Severe Weather on mobile